Weather observations for the past three days for
Amarillo, Amarillo International Airport
Imperial (Metric)
Date Time (cdt) Wind (mph) Vis. (mi.) Weather Sky Cond. Temperature (ºF) Relative Humidity Wind Chill (°F) Heat Index (°F) Pressure Precipitation (in)
Air Dwpt 6 hour altimeter (in) sea level (mb) 1 hr 3 hr 6 hr
Max. Min.
08 03:53 S 12 10.00 Fair CLR 54 39 57% 29.94 1009.9
08 02:53 S 12 10.00 Fair CLR 55 37 51% 29.95 1010.4
08 01:53 S 12 10.00 Fair CLR 57 37 47% 29.95 1010.6
08 00:53 S 12 10.00 Fair CLR 61 37 75 60.1 41% 29.96 1010.8
07 23:53 S 12 10.00 Fair CLR 60.1 34 38% 29.97 1011.7
07 22:53 S 7 10.00 Fair CLR 60.1 30.9 33% 29.98 1012.2
07 21:53 S 9 10.00 Fair CLR 66 30 26% 29.96 1011.8
07 20:53 S 9 10.00 Fair CLR 66.9 28.9 24% 29.94 1011.4
07 19:53 SW 13 10.00 Fair CLR 73 28.9 19% 29.93 1010.9
07 18:53 SW 12 G 22 10.00 Fair CLR 75 28 77 64 18% 76 29.93 1010.7
07 17:53 W 12 G 18 10.00 Fair CLR 75.9 28.9 18% 76 29.95 1011.0
07 16:53 SW 10 G 18 10.00 Fair CLR 75 30 19% 76 29.97 1011.9
07 15:53 SW 8 G 21 10.00 Fair CLR 73 33.1 23% 30 1013.1
07 14:53 SW 9 G 25 10.00 Fair CLR 71.1 35.1 27% 30.04 1014.5
07 13:53 NW 12 G 22 10.00 Fair CLR 68 37.9 33% 30.07 1015.7
07 12:53 SW 13 G 26 10.00 Fair CLR 64.9 39.9 64.9 41 40% 30.11 1017.3
07 11:53 W 15 10.00 Fair CLR 60.1 39.9 48% 30.14 1018.5
07 10:53 SW 14 G 21 10.00 Fair CLR 55.9 39 53% 30.15 1019.2
07 09:53 SW 8 10.00 Partly Cloudy SCT006 48 43 83% 45 30.17 1020.0
07 08:53 W 8 6.00 Fog/Mist OVC003 43 42.1 97% 39 30.18 1020.6
07 07:53 W 9 1.75 Fog/Mist OVC002 41 39.9 96% 36 30.18 1020.7
07 06:53 W 9 4.00 Fog/Mist OVC002 41 39.9 45 39.9 96% 36 30.17 1020.2 0.02
07 05:53 W 10 6.00 Fog/Mist OVC003 41 39.9 96% 35 30.17 1020.1
07 04:53 NW 7 4.00 Fog/Mist OVC004 41 39.9 96% 37 30.17 1020.1
07 03:53 N 5 6.00 Fog/Mist SCT005 39.9 39 97% 37 30.17 1020.2 0.02
07 02:53 NE 5 9.00 Mostly Cloudy FEW050 SCT070 BKN110 42.1 39.9 92% 40 30.16 1019.8 0.02
07 01:53 N 10 10.00 Overcast OVC045 44.1 39 83% 39 30.21 1021.3
07 00:53 NE 10 10.00 Overcast BKN048 OVC055 45 36 57.9 45 71% 40 30.18 1020.7
06 23:53 NE 13 10.00 Overcast OVC049 46 34 63% 41 30.18 1020.9
06 22:53 NE 16 10.00 Overcast OVC048 48 33.1 56% 42 30.17 1020.2
06 21:53 NE 21 G 28 10.00 Overcast and Breezy OVC049 51.1 34 52% 30.14 1019.1
06 20:53 NE 12 10.00 Mostly Cloudy BKN050 54 35.1 49% 30.09 1017.2
06 19:53 NE 14 10.00 A Few Clouds FEW050 55.9 35.1 46% 30.03 1015.2
06 18:53 E 14 G 25 10.00 Fair CLR 55.9 35.1 60.1 52 46% 30.01 1014.6
06 17:53 E 12 10.00 A Few Clouds FEW047 57 36 45% 30 1014.2
06 16:53 E 7 10.00 Partly Cloudy SCT043 57.9 36 44% 30.02 1014.7
06 15:53 E 14 G 24 10.00 Fair CLR 57.9 37 46% 30.02 1014.9
06 14:53 E 14 G 25 10.00 Partly Cloudy SCT037 57.9 36 44% 30.03 1015.1
06 13:53 E 8 G 18 10.00 Overcast OVC038 55.9 36 47% 30.04 1015.5
06 12:53 SE 6 10.00 Overcast OVC030 51.1 36 52 42.1 56% 30.07 1016.9
06 11:53 E 9 10.00 Overcast OVC027 50 36 59% 47 30.06 1016.6
06 10:53 E 8 10.00 Overcast OVC023 48.9 35.1 59% 46 30.05 1016.1
06 09:53 Vrbl 6 10.00 Overcast OVC022 46 35.1 66% 44 30.04 1015.8
06 08:53 SE 16 10.00 Overcast OVC020 45 33.1 63% 38 30.01 1014.5
06 07:53 E 14 10.00 Overcast OVC019 43 32 65% 37 30.03 1015.1
06 06:53 E 13 10.00 Overcast OVC021 42.1 32 45 42.1 68% 36 30.01 1014.5
06 05:53 E 14 10.00 Overcast OVC015 42.1 35.1 76% 35 30 1014.1
06 04:53 E 15 10.00 Overcast OVC012 42.1 37 82% 35 29.98 1013.1
06 03:53 E 15 10.00 Overcast OVC014 44.1 37.9 79% 38 29.96 1012.6
06 02:53 E 15 10.00 Mostly Cloudy BKN016 44.1 37 76% 38 29.94 1011.7
06 01:53 E 9 10.00 Overcast OVC019 44.1 37 76% 40 29.95 1012.1
06 00:53 E 9 10.00 Partly Cloudy SCT100 43 36 57.9 43 76% 38 29.94 1011.9
05 23:53 E 12 10.00 Fair CLR 45 36 71% 40 29.91 1010.9
05 22:53 E 15 10.00 Fair CLR 46.9 36 66% 41 29.9 1010.8
05 21:53 E 15 10.00 Fair CLR 48.9 35.1 59% 44 29.88 1009.7
05 20:53 NE 14 10.00 Mostly Cloudy BKN100 52 34 50% 29.87 1009.1
05 19:53 NE 16 10.00 Fair CLR 55.9 36 47% 29.83 1007.9
05 18:53 E 13 10.00 Fair CLR 57.9 36 62.1 57 44% 29.82 1007.1
05 17:53 E 14 G 18 10.00 Fair CLR 60.1 36 41% 29.82 1006.9
05 16:53 E 9 10.00 Fair CLR 61 36 39% 29.84 1007.0
05 15:53 E 8 10.00 Fair CLR 60.1 36 41% 29.87 1007.3
05 14:53 NE 14 G 23 10.00 Partly Cloudy SCT037 60.1 35.1 39% 29.87 1007.2
05 13:53 N 16 G 23 10.00 Overcast OVC031 59 35.1 41% 29.88 1007.9
05 12:53 NE 12 10.00 Overcast OVC029 57.9 34 59 52 41% 29.89 1008.2
05 11:53 N 17 G 24 10.00 Overcast OVC027 55.9 35.1 46% 29.88 1007.9
05 10:53 N 21 G 28 10.00 Overcast and Breezy OVC025 55 35.1 47% 29.87 1007.6
05 09:53 N 20 10.00 Overcast OVC024 55 34 45% 29.85 1006.8
05 08:53 N 21 G 29 10.00 Fair and Breezy CLR 53.1 33.1 47% 29.83 1005.9
05 07:53 N 20 10.00 Fair CLR 52 34 50% 29.8 1004.7
05 06:53 N 17 G 24 10.00 Fair CLR 53.1 37 73 53.1 55% 29.76 1003.4
05 05:53 N 18 G 29 10.00 Fair CLR 55 39 55% 29.76 1002.8
05 04:53 NW 25 G 36 10.00 Fair and Breezy CLR 61 37.9 43% 29.72 1001.1
Date Time (cdt) Wind (mph) Vis. (mi.) Weather Sky Cond. Air Dwpt Max. Min. Relative Humidity Wind Chill (°F) Heat Index (°F) altimeter (in) sea level (mb) 1 hr 3 hr 6 hr
6 hour
Temperature (ºF) Pressure Precipitation (in)